sensor_id;sensor_type;location;lat;lon;timestamp;temperature;humidity
20158;DHT22;10239;56.820;24.416;2022-12-20T00:01:30;-5.50;99.90
20158;DHT22;10239;56.820;24.416;2022-12-20T00:03:59;-5.40;99.90
20158;DHT22;10239;56.820;24.416;2022-12-20T00:06:28;-5.50;99.90
20158;DHT22;10239;56.820;24.416;2022-12-20T00:08:59;-5.70;99.90
20158;DHT22;10239;56.820;24.416;2022-12-20T00:11:27;-5.60;99.90
20158;DHT22;10239;56.820;24.416;2022-12-20T00:13:56;-5.60;99.90
20158;DHT22;10239;56.820;24.416;2022-12-20T00:16:26;-5.50;99.90
20158;DHT22;10239;56.820;24.416;2022-12-20T00:18:58;-5.40;99.90
20158;DHT22;10239;56.820;24.416;2022-12-20T00:21:27;-5.30;99.90
20158;DHT22;10239;56.820;24.416;2022-12-20T00:23:55;-5.20;99.90
20158;DHT22;10239;56.820;24.416;2022-12-20T00:26:26;-5.30;99.90
20158;DHT22;10239;56.820;24.416;2022-12-20T00:28:54;-5.30;99.90
20158;DHT22;10239;56.820;24.416;2022-12-20T00:31:24;-5.20;99.90
20158;DHT22;10239;56.820;24.416;2022-12-20T00:33:53;-5.40;99.90
20158;DHT22;10239;56.820;24.416;2022-12-20T00:36:22;-5.20;99.90
20158;DHT22;10239;56.820;24.416;2022-12-20T00:38:53;-5.10;99.90
20158;DHT22;10239;56.820;24.416;2022-12-20T00:41:24;-5.10;99.90
20158;DHT22;10239;56.820;24.416;2022-12-20T00:43:52;-5.00;99.90
20158;DHT22;10239;56.820;24.416;2022-12-20T00:46:22;-5.10;99.90
20158;DHT22;10239;56.820;24.416;2022-12-20T00:48:52;-5.10;99.90
20158;DHT22;10239;56.820;24.416;2022-12-20T00:51:26;-4.90;99.90
20158;DHT22;10239;56.820;24.416;2022-12-20T00:53:55;-5.00;99.90
20158;DHT22;10239;56.820;24.416;2022-12-20T00:56:22;-5.00;99.90
20158;DHT22;10239;56.820;24.416;2022-12-20T00:58:56;-5.00;99.90
20158;DHT22;10239;56.820;24.416;2022-12-20T01:01:29;-5.00;99.90
20158;DHT22;10239;56.820;24.416;2022-12-20T01:03:58;-4.80;99.90
20158;DHT22;10239;56.820;24.416;2022-12-20T01:06:29;-4.90;99.90
20158;DHT22;10239;56.820;24.416;2022-12-20T01:08:57;-4.90;99.90
20158;DHT22;10239;56.820;24.416;2022-12-20T01:11:28;-4.90;99.90
20158;DHT22;10239;56.820;24.416;2022-12-20T01:13:59;-5.00;99.90
20158;DHT22;10239;56.820;24.416;2022-12-20T01:16:31;-5.20;99.90
20158;DHT22;10239;56.820;24.416;2022-12-20T01:18:59;-5.00;99.90
20158;DHT22;10239;56.820;24.416;2022-12-20T01:21:27;-5.20;99.90
20158;DHT22;10239;56.820;24.416;2022-12-20T01:23:55;-5.00;99.90
20158;DHT22;10239;56.820;24.416;2022-12-20T01:26:25;-4.70;99.90
20158;DHT22;10239;56.820;24.416;2022-12-20T01:28:58;-4.90;99.90
20158;DHT22;10239;56.820;24.416;2022-12-20T01:31:28;-4.60;99.90
20158;DHT22;10239;56.820;24.416;2022-12-20T01:33:57;-4.50;99.90
20158;DHT22;10239;56.820;24.416;2022-12-20T01:36:30;-4.60;99.90
20158;DHT22;10239;56.820;24.416;2022-12-20T01:39:02;-4.70;99.90
20158;DHT22;10239;56.820;24.416;2022-12-20T01:41:31;-4.80;99.90
20158;DHT22;10239;56.820;24.416;2022-12-20T01:46:47;-4.60;99.90
20158;DHT22;10239;56.820;24.416;2022-12-20T01:52:08;-4.80;99.90
20158;DHT22;10239;56.820;24.416;2022-12-20T01:54:38;-4.60;99.90
20158;DHT22;10239;56.820;24.416;2022-12-20T01:57:13;-4.80;99.90
20158;DHT22;10239;56.820;24.416;2022-12-20T01:59:45;-4.80;99.90
20158;DHT22;10239;56.820;24.416;2022-12-20T02:02:16;-4.60;99.90
20158;DHT22;10239;56.820;24.416;2022-12-20T02:04:44;-4.60;99.90
20158;DHT22;10239;56.820;24.416;2022-12-20T02:07:17;-4.50;99.90
20158;DHT22;10239;56.820;24.416;2022-12-20T02:09:47;-4.60;99.90
20158;DHT22;10239;56.820;24.416;2022-12-20T02:12:22;-4.60;99.90
20158;DHT22;10239;56.820;24.416;2022-12-20T02:15:25;-4.50;99.90
20158;DHT22;10239;56.820;24.416;2022-12-20T02:18:07;-4.20;99.90
20158;DHT22;10239;56.820;24.416;2022-12-20T02:21:05;-4.40;99.90
20158;DHT22;10239;56.820;24.416;2022-12-20T02:29:52;-4.50;99.90
20158;DHT22;10239;56.820;24.416;2022-12-20T02:32:36;-4.50;99.90
20158;DHT22;10239;56.820;24.416;2022-12-20T02:35:07;-4.60;99.90
20158;DHT22;10239;56.820;24.416;2022-12-20T02:37:35;-4.50;99.90
20158;DHT22;10239;56.820;24.416;2022-12-20T02:40:03;-4.50;99.90
20158;DHT22;10239;56.820;24.416;2022-12-20T02:42:32;-4.40;99.90
20158;DHT22;10239;56.820;24.416;2022-12-20T02:45:05;-4.40;99.90
20158;DHT22;10239;56.820;24.416;2022-12-20T02:48:04;-4.40;99.90
20158;DHT22;10239;56.820;24.416;2022-12-20T02:50:49;-4.10;99.90
20158;DHT22;10239;56.820;24.416;2022-12-20T02:53:18;-3.90;99.90
20158;DHT22;10239;56.820;24.416;2022-12-20T02:56:13;-4.20;99.90
20158;DHT22;10239;56.820;24.416;2022-12-20T02:58:52;-4.20;99.90
20158;DHT22;10239;56.820;24.416;2022-12-20T03:01:27;-4.10;99.90
20158;DHT22;10239;56.820;24.416;2022-12-20T03:03:58;-4.10;99.90
20158;DHT22;10239;56.820;24.416;2022-12-20T03:06:26;-4.30;99.90
20158;DHT22;10239;56.820;24.416;2022-12-20T03:08:53;-4.20;99.90
20158;DHT22;10239;56.820;24.416;2022-12-20T03:11:24;-4.00;99.90
20158;DHT22;10239;56.820;24.416;2022-12-20T03:13:52;-4.00;99.90
20158;DHT22;10239;56.820;24.416;2022-12-20T03:16:19;-4.10;99.90
20158;DHT22;10239;56.820;24.416;2022-12-20T03:18:47;-4.10;99.90
20158;DHT22;10239;56.820;24.416;2022-12-20T03:21:15;-3.90;99.90
20158;DHT22;10239;56.820;24.416;2022-12-20T03:23:42;-3.90;99.90
20158;DHT22;10239;56.820;24.416;2022-12-20T03:26:10;-4.00;99.90
20158;DHT22;10239;56.820;24.416;2022-12-20T03:28:43;-4.10;99.90
20158;DHT22;10239;56.820;24.416;2022-12-20T03:31:15;-4.10;99.90
20158;DHT22;10239;56.820;24.416;2022-12-20T03:33:49;-4.00;99.90
20158;DHT22;10239;56.820;24.416;2022-12-20T03:36:16;-4.10;99.90
20158;DHT22;10239;56.820;24.416;2022-12-20T03:38:54;-4.10;99.90
20158;DHT22;10239;56.820;24.416;2022-12-20T03:41:24;-4.20;99.90
20158;DHT22;10239;56.820;24.416;2022-12-20T03:43:53;-4.00;99.90
20158;DHT22;10239;56.820;24.416;2022-12-20T03:46:24;-4.00;99.90
20158;DHT22;10239;56.820;24.416;2022-12-20T03:48:52;-4.00;99.90
20158;DHT22;10239;56.820;24.416;2022-12-20T03:51:20;-4.10;99.90
20158;DHT22;10239;56.820;24.416;2022-12-20T03:53:48;-4.20;99.90
20158;DHT22;10239;56.820;24.416;2022-12-20T03:56:17;-4.10;99.90
20158;DHT22;10239;56.820;24.416;2022-12-20T03:58:45;-4.20;99.90
20158;DHT22;10239;56.820;24.416;2022-12-20T04:01:20;-4.20;99.90
20158;DHT22;10239;56.820;24.416;2022-12-20T04:03:49;-4.10;99.90
20158;DHT22;10239;56.820;24.416;2022-12-20T04:06:18;-4.00;99.90
20158;DHT22;10239;56.820;24.416;2022-12-20T04:08:47;-4.20;99.90
20158;DHT22;10239;56.820;24.416;2022-12-20T04:11:22;-4.10;99.90
20158;DHT22;10239;56.820;24.416;2022-12-20T04:13:54;-4.10;99.90
20158;DHT22;10239;56.820;24.416;2022-12-20T04:16:25;-3.90;99.90
20158;DHT22;10239;56.820;24.416;2022-12-20T04:18:54;-4.30;99.90
20158;DHT22;10239;56.820;24.416;2022-12-20T04:21:25;-4.10;99.90
20158;DHT22;10239;56.820;24.416;2022-12-20T04:23:56;-4.00;99.90
20158;DHT22;10239;56.820;24.416;2022-12-20T04:26:32;-4.20;99.90
20158;DHT22;10239;56.820;24.416;2022-12-20T04:29:01;-3.90;99.90
20158;DHT22;10239;56.820;24.416;2022-12-20T04:31:29;-4.30;99.90
20158;DHT22;10239;56.820;24.416;2022-12-20T04:33:56;-4.10;99.90
20158;DHT22;10239;56.820;24.416;2022-12-20T04:36:24;-4.10;99.90
20158;DHT22;10239;56.820;24.416;2022-12-20T04:38:53;-4.20;99.90
20158;DHT22;10239;56.820;24.416;2022-12-20T04:41:21;-4.30;99.90
20158;DHT22;10239;56.820;24.416;2022-12-20T04:43:56;-4.40;99.90
20158;DHT22;10239;56.820;24.416;2022-12-20T04:46:32;-4.40;99.90
20158;DHT22;10239;56.820;24.416;2022-12-20T04:49:01;-4.40;99.90
20158;DHT22;10239;56.820;24.416;2022-12-20T04:51:31;-4.50;99.90
20158;DHT22;10239;56.820;24.416;2022-12-20T04:53:59;-4.40;99.90
20158;DHT22;10239;56.820;24.416;2022-12-20T04:56:45;-4.30;99.90
20158;DHT22;10239;56.820;24.416;2022-12-20T04:59:18;-4.40;99.90
20158;DHT22;10239;56.820;24.416;2022-12-20T05:01:49;-4.40;99.90
20158;DHT22;10239;56.820;24.416;2022-12-20T05:04:35;-4.40;99.90
20158;DHT22;10239;56.820;24.416;2022-12-20T05:07:04;-4.30;99.90
20158;DHT22;10239;56.820;24.416;2022-12-20T05:09:33;-4.30;99.90
20158;DHT22;10239;56.820;24.416;2022-12-20T05:12:01;-4.30;99.90
20158;DHT22;10239;56.820;24.416;2022-12-20T05:14:29;-4.30;99.90
20158;DHT22;10239;56.820;24.416;2022-12-20T05:16:57;-4.30;99.90
20158;DHT22;10239;56.820;24.416;2022-12-20T05:19:26;-4.40;99.90
20158;DHT22;10239;56.820;24.416;2022-12-20T05:21:54;-4.40;99.90
20158;DHT22;10239;56.820;24.416;2022-12-20T05:24:47;-4.40;99.90
20158;DHT22;10239;56.820;24.416;2022-12-20T05:27:36;-4.30;99.90
20158;DHT22;10239;56.820;24.416;2022-12-20T05:30:05;-4.40;99.90
20158;DHT22;10239;56.820;24.416;2022-12-20T05:32:32;-4.20;99.90
20158;DHT22;10239;56.820;24.416;2022-12-20T05:35:01;-4.10;99.90
20158;DHT22;10239;56.820;24.416;2022-12-20T05:37:30;-4.10;99.90
20158;DHT22;10239;56.820;24.416;2022-12-20T05:40:06;-4.00;99.90
20158;DHT22;10239;56.820;24.416;2022-12-20T05:42:34;-4.10;99.90
20158;DHT22;10239;56.820;24.416;2022-12-20T05:45:03;-4.30;99.90
20158;DHT22;10239;56.820;24.416;2022-12-20T05:47:39;-4.20;99.90
20158;DHT22;10239;56.820;24.416;2022-12-20T05:50:10;-4.20;99.90
20158;DHT22;10239;56.820;24.416;2022-12-20T05:53:03;-4.20;99.90
20158;DHT22;10239;56.820;24.416;2022-12-20T05:55:51;-4.10;99.90
20158;DHT22;10239;56.820;24.416;2022-12-20T05:58:24;-3.90;99.90
20158;DHT22;10239;56.820;24.416;2022-12-20T06:00:58;-4.00;99.90
20158;DHT22;10239;56.820;24.416;2022-12-20T06:03:26;-3.90;99.90
20158;DHT22;10239;56.820;24.416;2022-12-20T06:05:54;-4.00;99.90
20158;DHT22;10239;56.820;24.416;2022-12-20T06:08:28;-4.00;99.90
20158;DHT22;10239;56.820;24.416;2022-12-20T06:10:57;-3.80;99.90
20158;DHT22;10239;56.820;24.416;2022-12-20T06:13:25;-3.70;99.90
20158;DHT22;10239;56.820;24.416;2022-12-20T06:15:53;-3.90;99.90
20158;DHT22;10239;56.820;24.416;2022-12-20T06:18:21;-3.90;99.90
20158;DHT22;10239;56.820;24.416;2022-12-20T06:20:53;-3.90;99.90
20158;DHT22;10239;56.820;24.416;2022-12-20T06:23:25;-3.70;99.90
20158;DHT22;10239;56.820;24.416;2022-12-20T06:26:05;-3.80;99.90
20158;DHT22;10239;56.820;24.416;2022-12-20T06:28:44;-3.80;99.90
20158;DHT22;10239;56.820;24.416;2022-12-20T06:31:13;-3.80;99.90
20158;DHT22;10239;56.820;24.416;2022-12-20T06:33:43;-3.70;99.90
20158;DHT22;10239;56.820;24.416;2022-12-20T06:36:14;-3.90;99.90
20158;DHT22;10239;56.820;24.416;2022-12-20T06:38:43;-3.80;99.90
20158;DHT22;10239;56.820;24.416;2022-12-20T06:41:11;-3.90;99.90
20158;DHT22;10239;56.820;24.416;2022-12-20T06:43:39;-4.00;99.90
20158;DHT22;10239;56.820;24.416;2022-12-20T06:46:07;-3.80;99.90
20158;DHT22;10239;56.820;24.416;2022-12-20T06:48:36;-3.80;99.90
20158;DHT22;10239;56.820;24.416;2022-12-20T06:51:05;-3.70;99.90
20158;DHT22;10239;56.820;24.416;2022-12-20T06:53:33;-3.90;99.90
20158;DHT22;10239;56.820;24.416;2022-12-20T06:56:02;-3.90;99.90
20158;DHT22;10239;56.820;24.416;2022-12-20T06:58:31;-3.80;99.90
20158;DHT22;10239;56.820;24.416;2022-12-20T07:00:58;-3.80;99.90
20158;DHT22;10239;56.820;24.416;2022-12-20T07:03:27;-3.80;99.90
20158;DHT22;10239;56.820;24.416;2022-12-20T07:05:59;-3.80;99.90
20158;DHT22;10239;56.820;24.416;2022-12-20T07:08:27;-3.70;99.90
20158;DHT22;10239;56.820;24.416;2022-12-20T07:10:54;-3.50;99.90
20158;DHT22;10239;56.820;24.416;2022-12-20T07:13:23;-3.60;99.90
20158;DHT22;10239;56.820;24.416;2022-12-20T07:15:57;-3.70;99.90
20158;DHT22;10239;56.820;24.416;2022-12-20T07:18:25;-3.80;99.90
20158;DHT22;10239;56.820;24.416;2022-12-20T07:20:53;-3.80;99.90
20158;DHT22;10239;56.820;24.416;2022-12-20T07:23:21;-3.70;99.90
20158;DHT22;10239;56.820;24.416;2022-12-20T07:25:53;-3.50;99.90
20158;DHT22;10239;56.820;24.416;2022-12-20T07:28:22;-3.40;99.90
20158;DHT22;10239;56.820;24.416;2022-12-20T07:30:52;-3.30;99.90
20158;DHT22;10239;56.820;24.416;2022-12-20T07:33:20;-3.30;99.90
20158;DHT22;10239;56.820;24.416;2022-12-20T07:35:47;-3.20;99.90
20158;DHT22;10239;56.820;24.416;2022-12-20T07:38:20;-3.30;99.90
20158;DHT22;10239;56.820;24.416;2022-12-20T07:40:56;-3.20;99.90
20158;DHT22;10239;56.820;24.416;2022-12-20T07:43:24;-3.20;99.90
20158;DHT22;10239;56.820;24.416;2022-12-20T07:45:56;-3.00;99.90
20158;DHT22;10239;56.820;24.416;2022-12-20T07:48:24;-3.10;99.90
20158;DHT22;10239;56.820;24.416;2022-12-20T07:50:53;-2.90;99.90
20158;DHT22;10239;56.820;24.416;2022-12-20T07:53:23;-3.10;99.90
20158;DHT22;10239;56.820;24.416;2022-12-20T07:55:52;-3.00;99.90
20158;DHT22;10239;56.820;24.416;2022-12-20T07:58:21;-3.10;99.90
20158;DHT22;10239;56.820;24.416;2022-12-20T08:00:49;-3.00;99.90
20158;DHT22;10239;56.820;24.416;2022-12-20T08:03:21;-2.80;99.90
20158;DHT22;10239;56.820;24.416;2022-12-20T08:05:52;-2.80;99.90
20158;DHT22;10239;56.820;24.416;2022-12-20T08:08:21;-2.80;99.90
20158;DHT22;10239;56.820;24.416;2022-12-20T08:10:49;-2.70;99.90
20158;DHT22;10239;56.820;24.416;2022-12-20T08:13:17;-2.70;99.90
20158;DHT22;10239;56.820;24.416;2022-12-20T08:15:45;-2.60;99.90
20158;DHT22;10239;56.820;24.416;2022-12-20T08:18:13;-2.50;99.90
20158;DHT22;10239;56.820;24.416;2022-12-20T08:20:41;-2.60;99.90
20158;DHT22;10239;56.820;24.416;2022-12-20T08:23:08;-2.40;99.90
20158;DHT22;10239;56.820;24.416;2022-12-20T08:25:36;-2.40;99.90
20158;DHT22;10239;56.820;24.416;2022-12-20T08:28:08;-2.30;99.90
20158;DHT22;10239;56.820;24.416;2022-12-20T08:30:36;-2.30;99.90
20158;DHT22;10239;56.820;24.416;2022-12-20T08:33:04;-2.20;99.90
20158;DHT22;10239;56.820;24.416;2022-12-20T08:35:32;-2.30;99.90
20158;DHT22;10239;56.820;24.416;2022-12-20T08:37:59;-2.20;99.90
20158;DHT22;10239;56.820;24.416;2022-12-20T08:40:27;-2.30;99.90
20158;DHT22;10239;56.820;24.416;2022-12-20T08:42:54;-2.10;99.90
20158;DHT22;10239;56.820;24.416;2022-12-20T08:45:22;-2.30;99.90
20158;DHT22;10239;56.820;24.416;2022-12-20T08:47:50;-2.10;99.90
20158;DHT22;10239;56.820;24.416;2022-12-20T08:50:17;-2.00;99.90
20158;DHT22;10239;56.820;24.416;2022-12-20T08:52:45;-2.00;99.90
20158;DHT22;10239;56.820;24.416;2022-12-20T08:55:13;-2.10;99.90
20158;DHT22;10239;56.820;24.416;2022-12-20T08:57:40;-2.40;99.90
20158;DHT22;10239;56.820;24.416;2022-12-20T09:00:12;-2.30;99.90
20158;DHT22;10239;56.820;24.416;2022-12-20T09:02:40;-2.20;99.90
20158;DHT22;10239;56.820;24.416;2022-12-20T09:05:08;-2.00;99.90
20158;DHT22;10239;56.820;24.416;2022-12-20T09:07:36;-2.00;99.90
20158;DHT22;10239;56.820;24.416;2022-12-20T09:10:04;-1.90;99.90
20158;DHT22;10239;56.820;24.416;2022-12-20T09:12:36;-1.90;99.90
20158;DHT22;10239;56.820;24.416;2022-12-20T09:15:04;-1.80;99.90
20158;DHT22;10239;56.820;24.416;2022-12-20T09:17:32;-1.70;99.90
20158;DHT22;10239;56.820;24.416;2022-12-20T09:20:00;-1.70;99.90
20158;DHT22;10239;56.820;24.416;2022-12-20T09:22:30;-1.80;99.90
20158;DHT22;10239;56.820;24.416;2022-12-20T09:24:57;-1.80;99.90
20158;DHT22;10239;56.820;24.416;2022-12-20T09:27:24;-1.70;99.90
20158;DHT22;10239;56.820;24.416;2022-12-20T09:29:52;-1.80;99.90
20158;DHT22;10239;56.820;24.416;2022-12-20T09:32:19;-1.70;99.90
20158;DHT22;10239;56.820;24.416;2022-12-20T09:34:46;-1.70;99.90
20158;DHT22;10239;56.820;24.416;2022-12-20T09:37:14;-1.60;99.90
20158;DHT22;10239;56.820;24.416;2022-12-20T09:39:41;-1.60;99.90
20158;DHT22;10239;56.820;24.416;2022-12-20T09:42:09;-1.50;99.90
20158;DHT22;10239;56.820;24.416;2022-12-20T09:44:39;-1.40;99.90
20158;DHT22;10239;56.820;24.416;2022-12-20T09:47:18;-1.50;99.90
20158;DHT22;10239;56.820;24.416;2022-12-20T09:49:50;-1.40;99.90
20158;DHT22;10239;56.820;24.416;2022-12-20T09:55:29;-1.60;99.90
20158;DHT22;10239;56.820;24.416;2022-12-20T10:00:48;-1.50;99.90
20158;DHT22;10239;56.820;24.416;2022-12-20T10:03:25;-1.40;99.90
20158;DHT22;10239;56.820;24.416;2022-12-20T10:06:36;-1.40;99.90
20158;DHT22;10239;56.820;24.416;2022-12-20T10:15:37;-1.00;99.90
20158;DHT22;10239;56.820;24.416;2022-12-20T10:24:16;-0.60;99.90
20158;DHT22;10239;56.820;24.416;2022-12-20T10:26:48;-0.50;99.90
20158;DHT22;10239;56.820;24.416;2022-12-20T10:29:17;-0.50;99.90
20158;DHT22;10239;56.820;24.416;2022-12-20T10:31:52;-0.60;99.90
20158;DHT22;10239;56.820;24.416;2022-12-20T10:34:22;-0.70;99.90
20158;DHT22;10239;56.820;24.416;2022-12-20T10:37:12;-0.70;99.90
20158;DHT22;10239;56.820;24.416;2022-12-20T10:39:42;-0.40;99.90
20158;DHT22;10239;56.820;24.416;2022-12-20T10:42:38;-0.60;99.90
20158;DHT22;10239;56.820;24.416;2022-12-20T10:45:37;-0.40;99.90
20158;DHT22;10239;56.820;24.416;2022-12-20T10:53:58;-0.30;99.90
20158;DHT22;10239;56.820;24.416;2022-12-20T10:59:26;-0.50;99.90
20158;DHT22;10239;56.820;24.416;2022-12-20T11:01:56;-0.50;99.90
20158;DHT22;10239;56.820;24.416;2022-12-20T11:04:29;-0.40;99.90
20158;DHT22;10239;56.820;24.416;2022-12-20T11:07:01;-0.40;99.90
20158;DHT22;10239;56.820;24.416;2022-12-20T11:09:34;-0.20;99.90
20158;DHT22;10239;56.820;24.416;2022-12-20T11:12:16;-0.20;99.90
20158;DHT22;10239;56.820;24.416;2022-12-20T11:14:45;-0.20;99.90
20158;DHT22;10239;56.820;24.416;2022-12-20T11:37:26;0.10;99.90
20158;DHT22;10239;56.820;24.416;2022-12-20T11:43:26;0.10;99.90
20158;DHT22;10239;56.820;24.416;2022-12-20T11:51:45;0.20;99.90
20158;DHT22;10239;56.820;24.416;2022-12-20T11:54:26;0.30;99.90
20158;DHT22;10239;56.820;24.416;2022-12-20T11:57:01;0.20;99.90
20158;DHT22;10239;56.820;24.416;2022-12-20T11:59:41;0.30;99.90
20158;DHT22;10239;56.820;24.416;2022-12-20T12:05:43;0.50;99.90
20158;DHT22;10239;56.820;24.416;2022-12-20T12:08:22;0.40;99.90
20158;DHT22;10239;56.820;24.416;2022-12-20T12:11:06;0.40;99.90
20158;DHT22;10239;56.820;24.416;2022-12-20T12:13:56;0.40;99.90
20158;DHT22;10239;56.820;24.416;2022-12-20T12:19:00;0.60;99.90
20158;DHT22;10239;56.820;24.416;2022-12-20T12:21:37;0.40;99.90
20158;DHT22;10239;56.820;24.416;2022-12-20T12:24:28;0.70;99.90
20158;DHT22;10239;56.820;24.416;2022-12-20T12:26:59;0.50;99.90
20158;DHT22;10239;56.820;24.416;2022-12-20T12:29:28;0.40;99.90
20158;DHT22;10239;56.820;24.416;2022-12-20T12:31:59;0.70;99.90
20158;DHT22;10239;56.820;24.416;2022-12-20T12:45:48;1.00;99.90
20158;DHT22;10239;56.820;24.416;2022-12-20T12:50:53;0.80;99.90
20158;DHT22;10239;56.820;24.416;2022-12-20T12:53:33;1.00;99.90
20158;DHT22;10239;56.820;24.416;2022-12-20T12:59:20;0.80;99.90
20158;DHT22;10239;56.820;24.416;2022-12-20T13:02:18;1.10;99.90
20158;DHT22;10239;56.820;24.416;2022-12-20T13:07:42;1.30;99.90
20158;DHT22;10239;56.820;24.416;2022-12-20T13:18:01;1.50;99.90
20158;DHT22;10239;56.820;24.416;2022-12-20T13:21:17;1.60;99.90
20158;DHT22;10239;56.820;24.416;2022-12-20T13:23:45;1.60;99.90
20158;DHT22;10239;56.820;24.416;2022-12-20T13:26:42;1.70;99.90
20158;DHT22;10239;56.820;24.416;2022-12-20T13:29:34;1.80;99.90
20158;DHT22;10239;56.820;24.416;2022-12-20T13:32:03;1.80;99.90
20158;DHT22;10239;56.820;24.416;2022-12-20T13:34:54;1.90;99.90
20158;DHT22;10239;56.820;24.416;2022-12-20T13:37:53;2.00;99.90
20158;DHT22;10239;56.820;24.416;2022-12-20T13:40:58;1.80;99.90
20158;DHT22;10239;56.820;24.416;2022-12-20T13:43:41;1.80;99.90
20158;DHT22;10239;56.820;24.416;2022-12-20T13:51:06;1.90;99.90
20158;DHT22;10239;56.820;24.416;2022-12-20T13:53:35;2.00;99.90
20158;DHT22;10239;56.820;24.416;2022-12-20T13:58:54;1.90;99.90
20158;DHT22;10239;56.820;24.416;2022-12-20T14:01:24;1.80;99.90
20158;DHT22;10239;56.820;24.416;2022-12-20T14:03:53;2.00;99.90
20158;DHT22;10239;56.820;24.416;2022-12-20T14:06:22;1.80;99.90
20158;DHT22;10239;56.820;24.416;2022-12-20T14:08:53;1.90;99.90
20158;DHT22;10239;56.820;24.416;2022-12-20T14:11:23;2.00;99.90
20158;DHT22;10239;56.820;24.416;2022-12-20T14:13:56;2.00;99.90
20158;DHT22;10239;56.820;24.416;2022-12-20T14:16:29;2.10;99.90
20158;DHT22;10239;56.820;24.416;2022-12-20T14:21:29;2.10;99.90
20158;DHT22;10239;56.820;24.416;2022-12-20T14:23:58;2.10;99.90
20158;DHT22;10239;56.820;24.416;2022-12-20T14:26:35;2.10;99.90
20158;DHT22;10239;56.820;24.416;2022-12-20T14:29:19;2.20;99.90
20158;DHT22;10239;56.820;24.416;2022-12-20T14:31:49;2.20;99.90
20158;DHT22;10239;56.820;24.416;2022-12-20T14:34:30;2.30;99.90
20158;DHT22;10239;56.820;24.416;2022-12-20T14:37:39;2.30;99.90
20158;DHT22;10239;56.820;24.416;2022-12-20T14:40:22;2.40;99.90
20158;DHT22;10239;56.820;24.416;2022-12-20T14:42:50;2.30;99.90
20158;DHT22;10239;56.820;24.416;2022-12-20T14:45:22;2.30;99.90
20158;DHT22;10239;56.820;24.416;2022-12-20T14:48:05;2.30;99.90
20158;DHT22;10239;56.820;24.416;2022-12-20T14:50:39;2.40;99.90
20158;DHT22;10239;56.820;24.416;2022-12-20T14:53:22;2.50;99.90
20158;DHT22;10239;56.820;24.416;2022-12-20T14:55:56;2.50;99.90
20158;DHT22;10239;56.820;24.416;2022-12-20T14:58:30;2.40;99.90
20158;DHT22;10239;56.820;24.416;2022-12-20T15:01:01;2.40;99.90
20158;DHT22;10239;56.820;24.416;2022-12-20T15:03:29;2.50;99.90
20158;DHT22;10239;56.820;24.416;2022-12-20T15:05:58;2.50;99.90
20158;DHT22;10239;56.820;24.416;2022-12-20T15:08:33;2.60;99.90
20158;DHT22;10239;56.820;24.416;2022-12-20T15:11:22;2.60;99.90
20158;DHT22;10239;56.820;24.416;2022-12-20T15:13:52;2.60;99.90
20158;DHT22;10239;56.820;24.416;2022-12-20T15:16:26;2.40;99.90
20158;DHT22;10239;56.820;24.416;2022-12-20T15:18:56;2.50;99.90
20158;DHT22;10239;56.820;24.416;2022-12-20T15:21:31;2.60;99.90
20158;DHT22;10239;56.820;24.416;2022-12-20T15:24:01;2.30;99.90
20158;DHT22;10239;56.820;24.416;2022-12-20T15:26:29;2.30;99.90
20158;DHT22;10239;56.820;24.416;2022-12-20T15:28:57;2.40;99.90
20158;DHT22;10239;56.820;24.416;2022-12-20T15:31:27;2.40;99.90
20158;DHT22;10239;56.820;24.416;2022-12-20T15:36:57;2.50;99.90
20158;DHT22;10239;56.820;24.416;2022-12-20T15:39:27;2.60;99.90
20158;DHT22;10239;56.820;24.416;2022-12-20T15:41:55;2.50;99.90
20158;DHT22;10239;56.820;24.416;2022-12-20T15:44:27;2.50;99.90
20158;DHT22;10239;56.820;24.416;2022-12-20T15:46:55;2.60;99.90
20158;DHT22;10239;56.820;24.416;2022-12-20T15:49:26;2.30;99.90
20158;DHT22;10239;56.820;24.416;2022-12-20T15:51:55;2.10;99.90
20158;DHT22;10239;56.820;24.416;2022-12-20T15:54:28;2.40;99.90
20158;DHT22;10239;56.820;24.416;2022-12-20T15:56:58;2.50;99.90
20158;DHT22;10239;56.820;24.416;2022-12-20T15:59:26;2.60;99.90
20158;DHT22;10239;56.820;24.416;2022-12-20T16:02:24;2.60;99.90
20158;DHT22;10239;56.820;24.416;2022-12-20T16:04:52;2.60;99.90
20158;DHT22;10239;56.820;24.416;2022-12-20T16:07:21;2.70;99.90
20158;DHT22;10239;56.820;24.416;2022-12-20T16:09:49;2.50;99.90
20158;DHT22;10239;56.820;24.416;2022-12-20T16:12:20;2.60;99.90
20158;DHT22;10239;56.820;24.416;2022-12-20T16:14:49;2.60;99.90
20158;DHT22;10239;56.820;24.416;2022-12-20T16:17:17;2.70;99.90
20158;DHT22;10239;56.820;24.416;2022-12-20T16:19:45;2.70;99.90
20158;DHT22;10239;56.820;24.416;2022-12-20T16:22:17;2.70;99.90
20158;DHT22;10239;56.820;24.416;2022-12-20T16:24:45;2.60;99.90
20158;DHT22;10239;56.820;24.416;2022-12-20T16:27:13;2.70;99.90
20158;DHT22;10239;56.820;24.416;2022-12-20T16:29:40;2.80;99.90
20158;DHT22;10239;56.820;24.416;2022-12-20T16:32:19;2.80;99.90
20158;DHT22;10239;56.820;24.416;2022-12-20T16:34:48;2.80;99.90
20158;DHT22;10239;56.820;24.416;2022-12-20T16:37:16;2.80;99.90
20158;DHT22;10239;56.820;24.416;2022-12-20T16:39:44;2.80;99.90
20158;DHT22;10239;56.820;24.416;2022-12-20T16:42:17;2.90;99.90
20158;DHT22;10239;56.820;24.416;2022-12-20T16:44:51;2.70;99.90
20158;DHT22;10239;56.820;24.416;2022-12-20T16:47:19;2.80;99.90
20158;DHT22;10239;56.820;24.416;2022-12-20T16:49:47;2.80;99.90
20158;DHT22;10239;56.820;24.416;2022-12-20T16:52:20;2.80;99.90
20158;DHT22;10239;56.820;24.416;2022-12-20T16:54:48;2.90;99.90
20158;DHT22;10239;56.820;24.416;2022-12-20T16:57:16;2.90;99.90
20158;DHT22;10239;56.820;24.416;2022-12-20T16:59:43;2.80;99.90
20158;DHT22;10239;56.820;24.416;2022-12-20T17:02:37;2.90;99.90
20158;DHT22;10239;56.820;24.416;2022-12-20T17:05:04;2.90;99.90
20158;DHT22;10239;56.820;24.416;2022-12-20T17:07:32;2.90;99.90
20158;DHT22;10239;56.820;24.416;2022-12-20T17:10:08;2.90;99.90
20158;DHT22;10239;56.820;24.416;2022-12-20T17:12:36;2.90;99.90
20158;DHT22;10239;56.820;24.416;2022-12-20T17:15:03;2.90;99.90
20158;DHT22;10239;56.820;24.416;2022-12-20T17:17:31;2.80;99.90
20158;DHT22;10239;56.820;24.416;2022-12-20T17:19:58;2.80;99.90
20158;DHT22;10239;56.820;24.416;2022-12-20T17:22:26;2.90;99.90
20158;DHT22;10239;56.820;24.416;2022-12-20T17:25:26;2.80;99.90
20158;DHT22;10239;56.820;24.416;2022-12-20T17:27:54;2.90;99.90
20158;DHT22;10239;56.820;24.416;2022-12-20T17:30:24;2.90;99.90
20158;DHT22;10239;56.820;24.416;2022-12-20T17:32:52;2.80;99.90
20158;DHT22;10239;56.820;24.416;2022-12-20T17:35:26;2.80;99.90
20158;DHT22;10239;56.820;24.416;2022-12-20T17:37:54;2.90;99.90
20158;DHT22;10239;56.820;24.416;2022-12-20T17:40:24;3.00;99.90
20158;DHT22;10239;56.820;24.416;2022-12-20T17:42:52;2.70;99.90
20158;DHT22;10239;56.820;24.416;2022-12-20T17:45:23;2.90;99.90
20158;DHT22;10239;56.820;24.416;2022-12-20T17:47:52;3.00;99.90